sensor_id;sensor_type;location;lat;lon;timestamp;pressure;altitude;pressure_sealevel;temperature;humidity
26915;BME280;14480;52.608;13.416;2023-04-27T08:47:44;142441.34;;;-6.33;72.75
26915;BME280;14480;52.608;13.416;2023-04-27T08:52:49;142442.56;;;-6.33;71.44
26915;BME280;14480;52.608;13.416;2023-04-27T08:57:53;142485.84;;;-6.15;72.75
26915;BME280;14480;52.608;13.416;2023-04-27T09:02:59;142649.22;;;-5.48;70.21
26915;BME280;14480;52.608;13.416;2023-04-27T09:08:07;142766.84;;;-5.00;67.39
26915;BME280;14480;52.608;13.416;2023-04-27T09:13:11;142754.50;;;-5.05;70.00
26915;BME280;14480;52.608;13.416;2023-04-27T09:18:18;142504.44;;;-6.07;71.55
26915;BME280;14480;52.608;13.416;2023-04-27T09:23:24;142394.31;;;-6.53;71.33
26915;BME280;14480;52.608;13.416;2023-04-27T09:28:29;142489.59;;;-6.13;69.19
26915;BME280;14480;52.608;13.416;2023-04-27T09:33:35;142656.63;;;-5.45;68.81
26915;BME280;14480;52.608;13.416;2023-04-27T09:38:38;142802.81;;;-4.85;70.30
26915;BME280;14480;52.608;13.416;2023-04-27T09:43:45;142848.63;;;-4.66;67.04
26915;BME280;14480;52.608;13.416;2023-04-27T09:48:50;142743.34;;;-5.09;64.12
26915;BME280;14480;52.608;13.416;2023-04-27T09:53:55;142582.38;;;-5.75;65.96
26915;BME280;14480;52.608;13.416;2023-04-27T09:59:04;142573.66;;;-5.79;68.91
26915;BME280;14480;52.608;13.416;2023-04-27T10:04:20;142721.06;;;-5.18;68.48
26915;BME280;14480;52.608;13.416;2023-04-27T10:09:35;142926.72;;;-4.34;65.64
26915;BME280;14480;52.608;13.416;2023-04-27T10:14:46;143038.28;;;-3.88;60.32
26915;BME280;14480;52.608;13.416;2023-04-27T10:19:58;143118.91;;;-3.55;60.35
26915;BME280;14480;52.608;13.416;2023-04-27T10:25:11;143055.66;;;-3.81;57.42
26915;BME280;14480;52.608;13.416;2023-04-27T10:30:15;143017.19;;;-3.97;56.74
26915;BME280;14480;52.608;13.416;2023-04-27T10:35:30;143014.72;;;-3.98;59.27
26915;BME280;14480;52.608;13.416;2023-04-27T10:40:35;142993.63;;;-4.06;59.90
26915;BME280;14480;52.608;13.416;2023-04-27T10:45:39;142963.88;;;-4.19;61.47
26915;BME280;14480;52.608;13.416;2023-04-27T10:50:45;143007.28;;;-4.01;61.62
26915;BME280;14480;52.608;13.416;2023-04-27T10:55:53;143018.44;;;-3.96;60.74
26915;BME280;14480;52.608;13.416;2023-04-27T11:01:00;142872.19;;;-4.56;58.28
26915;BME280;14480;52.608;13.416;2023-04-27T11:06:06;142787.91;;;-4.91;57.98
26915;BME280;14480;52.608;13.416;2023-04-27T11:11:12;142825.06;;;-4.76;61.68
26915;BME280;14480;52.608;13.416;2023-04-27T11:16:17;142900.69;;;-4.45;58.91
26915;BME280;14480;52.608;13.416;2023-04-27T11:21:25;142820.13;;;-4.78;59.50
26915;BME280;14480;52.608;13.416;2023-04-27T11:26:29;142986.22;;;-4.09;59.49
26915;BME280;14480;52.608;13.416;2023-04-27T11:31:39;142915.56;;;-4.38;57.72
26915;BME280;14480;52.608;13.416;2023-04-27T11:36:45;142847.38;;;-4.66;60.05
26915;BME280;14480;52.608;13.416;2023-04-27T11:42:19;143058.16;;;-3.80;59.44
26915;BME280;14480;52.608;13.416;2023-04-27T11:47:27;143071.75;;;-3.74;59.67
26915;BME280;14480;52.608;13.416;2023-04-27T11:52:47;143144.97;;;-3.44;58.26
26915;BME280;14480;52.608;13.416;2023-04-27T11:57:55;142915.56;;;-4.38;59.50
26915;BME280;14480;52.608;13.416;2023-04-27T12:03:00;142924.25;;;-4.35;60.75
26915;BME280;14480;52.608;13.416;2023-04-27T12:08:11;142766.84;;;-5.00;60.35
26915;BME280;14480;52.608;13.416;2023-04-27T12:13:16;142906.88;;;-4.42;60.09
26915;BME280;14480;52.608;13.416;2023-04-27T12:18:45;143096.56;;;-3.64;58.62
26915;BME280;14480;52.608;13.416;2023-04-27T12:23:52;143122.63;;;-3.54;58.07
26915;BME280;14480;52.608;13.416;2023-04-27T12:34:30;143090.38;;;-3.67;59.89
26915;BME280;14480;52.608;13.416;2023-04-27T12:39:35;143163.53;;;-3.37;58.54
26915;BME280;14480;52.608;13.416;2023-04-27T12:44:39;143122.63;;;-3.54;58.56
26915;BME280;14480;52.608;13.416;2023-04-27T12:49:44;143162.28;;;-3.37;55.64
26915;BME280;14480;52.608;13.416;2023-04-27T12:54:50;143171.00;;;-3.34;55.51
26915;BME280;14480;52.608;13.416;2023-04-27T12:59:58;142878.38;;;-4.54;59.03
26915;BME280;14480;52.608;13.416;2023-04-27T13:05:05;142986.22;;;-4.09;56.93
26915;BME280;14480;52.608;13.416;2023-04-27T13:10:12;142978.78;;;-4.13;54.87
26915;BME280;14480;52.608;13.416;2023-04-27T13:15:19;143084.19;;;-3.69;53.81
26915;BME280;14480;52.608;13.416;2023-04-27T13:20:23;143172.25;;;-3.33;53.07
26915;BME280;14480;52.608;13.416;2023-04-27T13:25:28;143282.69;;;-2.88;53.22
26915;BME280;14480;52.608;13.416;2023-04-27T13:30:31;143352.19;;;-2.59;52.71
26915;BME280;14480;52.608;13.416;2023-04-27T13:35:35;143444.03;;;-2.22;51.50
26915;BME280;14480;52.608;13.416;2023-04-27T13:40:40;143321.16;;;-2.72;51.86
26915;BME280;14480;52.608;13.416;2023-04-27T13:45:43;143283.94;;;-2.87;52.93
26915;BME280;14480;52.608;13.416;2023-04-27T13:50:47;143183.41;;;-3.29;52.92
26915;BME280;14480;52.608;13.416;2023-04-27T13:55:52;142937.84;;;-4.29;52.55
26915;BME280;14480;52.608;13.416;2023-04-27T14:00:56;143042.00;;;-3.87;53.73
26915;BME280;14480;52.608;13.416;2023-04-27T14:06:00;143102.75;;;-3.62;54.51
26915;BME280;14480;52.608;13.416;2023-04-27T14:11:06;142971.34;;;-4.16;52.90
26915;BME280;14480;52.608;13.416;2023-04-27T14:16:12;142872.19;;;-4.56;55.09
26915;BME280;14480;52.608;13.416;2023-04-27T14:21:17;142888.31;;;-4.50;53.75
26915;BME280;14480;52.608;13.416;2023-04-27T14:26:22;142719.81;;;-5.19;56.68
26915;BME280;14480;52.608;13.416;2023-04-27T14:31:26;142764.38;;;-5.01;57.79
26915;BME280;14480;52.608;13.416;2023-04-27T14:36:30;142900.69;;;-4.45;57.87
26915;BME280;14480;52.608;13.416;2023-04-27T14:41:39;142859.81;;;-4.61;56.40
26915;BME280;14480;52.608;13.416;2023-04-27T14:46:42;142842.44;;;-4.68;57.94
26915;BME280;14480;52.608;13.416;2023-04-27T14:51:45;142822.59;;;-4.77;58.47
26915;BME280;14480;52.608;13.416;2023-04-27T14:56:54;142745.84;;;-5.08;60.47
26915;BME280;14480;52.608;13.416;2023-04-27T15:02:02;142732.19;;;-5.14;58.60
26915;BME280;14480;52.608;13.416;2023-04-27T15:07:13;142761.91;;;-5.02;58.97
26915;BME280;14480;52.608;13.416;2023-04-27T15:12:37;142753.25;;;-5.05;59.64
26915;BME280;14480;52.608;13.416;2023-04-27T15:17:44;142832.53;;;-4.73;58.95
26915;BME280;14480;52.608;13.416;2023-04-27T15:22:49;142980.03;;;-4.12;57.18
26915;BME280;14480;52.608;13.416;2023-04-27T15:27:58;143038.28;;;-3.88;56.38
26915;BME280;14480;52.608;13.416;2023-04-27T15:33:04;142982.50;;;-4.11;55.69
26915;BME280;14480;52.608;13.416;2023-04-27T15:38:11;142946.56;;;-4.26;56.10
26915;BME280;14480;52.608;13.416;2023-04-27T15:43:16;142971.34;;;-4.16;54.32
26915;BME280;14480;52.608;13.416;2023-04-27T15:48:20;142980.03;;;-4.12;52.90
26915;BME280;14480;52.608;13.416;2023-04-27T15:53:26;143048.19;;;-3.84;56.55
26915;BME280;14480;52.608;13.416;2023-04-27T15:58:30;143087.91;;;-3.68;56.01
26915;BME280;14480;52.608;13.416;2023-04-27T16:03:36;143079.19;;;-3.71;54.77
26915;BME280;14480;52.608;13.416;2023-04-27T16:08:40;143086.66;;;-3.68;51.80
26915;BME280;14480;52.608;13.416;2023-04-27T16:13:44;142921.75;;;-4.36;51.75
26915;BME280;14480;52.608;13.416;2023-04-27T16:18:48;142993.63;;;-4.06;52.39
26915;BME280;14480;52.608;13.416;2023-04-27T16:23:56;143060.63;;;-3.79;53.26
26915;BME280;14480;52.608;13.416;2023-04-27T16:29:00;143087.91;;;-3.68;52.76
26915;BME280;14480;52.608;13.416;2023-04-27T16:34:04;143054.44;;;-3.82;51.73
26915;BME280;14480;52.608;13.416;2023-04-27T16:39:10;143046.97;;;-3.85;52.42
26915;BME280;14480;52.608;13.416;2023-04-27T16:44:17;143027.16;;;-3.93;51.81
26915;BME280;14480;52.608;13.416;2023-04-27T16:49:21;142940.31;;;-4.28;52.04
26915;BME280;14480;52.608;13.416;2023-04-27T16:54:41;142883.31;;;-4.52;52.36
26915;BME280;14480;52.608;13.416;2023-04-27T16:59:47;142866.00;;;-4.59;52.62
26915;BME280;14480;52.608;13.416;2023-04-27T17:05:07;142813.94;;;-4.80;53.95
26915;BME280;14480;52.608;13.416;2023-04-27T17:10:33;142800.34;;;-4.86;54.50
26915;BME280;14480;52.608;13.416;2023-04-27T17:15:49;142735.88;;;-5.12;54.69
26915;BME280;14480;52.608;13.416;2023-04-27T17:21:16;142651.69;;;-5.47;56.03
26915;BME280;14480;52.608;13.416;2023-04-27T17:26:20;142631.91;;;-5.55;56.21
26915;BME280;14480;52.608;13.416;2023-04-27T17:31:28;142589.78;;;-5.72;55.97
26915;BME280;14480;52.608;13.416;2023-04-27T17:36:34;142567.50;;;-5.81;57.94
26915;BME280;14480;52.608;13.416;2023-04-27T17:41:38;142523.00;;;-6.00;56.64
26915;BME280;14480;52.608;13.416;2023-04-27T17:46:45;142428.94;;;-6.38;57.92
26915;BME280;14480;52.608;13.416;2023-04-27T17:51:51;142409.16;;;-6.47;58.71
26915;BME280;14480;52.608;13.416;2023-04-27T17:56:56;142402.94;;;-6.49;58.65
26915;BME280;14480;52.608;13.416;2023-04-27T18:02:01;142383.19;;;-6.57;60.07
26915;BME280;14480;52.608;13.416;2023-04-27T18:07:04;142354.75;;;-6.69;62.00
26915;BME280;14480;52.608;13.416;2023-04-27T18:12:08;142330.00;;;-6.79;62.94
26915;BME280;14480;52.608;13.416;2023-04-27T18:17:13;142278.06;;;-7.00;66.11
26915;BME280;14480;52.608;13.416;2023-04-27T18:22:17;142222.41;;;-7.23;65.99
26915;BME280;14480;52.608;13.416;2023-04-27T18:27:21;142195.22;;;-7.35;65.74
26915;BME280;14480;52.608;13.416;2023-04-27T18:32:28;142153.22;;;-7.52;66.32
26915;BME280;14480;52.608;13.416;2023-04-27T18:37:32;142117.34;;;-7.67;67.31
26915;BME280;14480;52.608;13.416;2023-04-27T18:42:35;142061.75;;;-7.89;68.97
26915;BME280;14480;52.608;13.416;2023-04-27T18:47:43;142030.84;;;-8.02;68.28
26915;BME280;14480;52.608;13.416;2023-04-27T18:52:47;141999.97;;;-8.15;67.20
26915;BME280;14480;52.608;13.416;2023-04-27T18:57:51;141967.88;;;-8.28;67.49
26915;BME280;14480;52.608;13.416;2023-04-27T19:02:56;141937.06;;;-8.41;69.99
26915;BME280;14480;52.608;13.416;2023-04-27T19:07:59;141903.72;;;-8.55;69.25
26915;BME280;14480;52.608;13.416;2023-04-27T19:13:03;141882.72;;;-8.63;70.11
26915;BME280;14480;52.608;13.416;2023-04-27T19:18:09;141872.84;;;-8.67;71.73
26915;BME280;14480;52.608;13.416;2023-04-27T19:23:13;141849.38;;;-8.77;72.94
26915;BME280;14480;52.608;13.416;2023-04-27T19:28:20;141823.47;;;-8.88;75.51
26915;BME280;14480;52.608;13.416;2023-04-27T19:33:26;141760.53;;;-9.14;77.70
26915;BME280;14480;52.608;13.416;2023-04-27T19:38:30;141730.91;;;-9.26;77.14
26915;BME280;14480;52.608;13.416;2023-04-27T19:44:24;141712.38;;;-9.33;76.32
26915;BME280;14480;52.608;13.416;2023-04-27T19:49:31;141709.94;;;-9.34;76.27
26915;BME280;14480;52.608;13.416;2023-04-27T19:54:35;141700.03;;;-9.38;77.80
26915;BME280;14480;52.608;13.416;2023-04-27T19:59:40;141679.09;;;-9.47;77.62
26915;BME280;14480;52.608;13.416;2023-04-27T20:04:45;141663.03;;;-9.54;78.62
26915;BME280;14480;52.608;13.416;2023-04-27T20:09:50;141649.50;;;-9.59;77.86
26915;BME280;14480;52.608;13.416;2023-04-27T20:14:53;141607.53;;;-9.77;80.06
26915;BME280;14480;52.608;13.416;2023-04-27T20:19:59;141590.28;;;-9.84;80.69
26915;BME280;14480;52.608;13.416;2023-04-27T20:25:06;141597.69;;;-9.81;82.68
26915;BME280;14480;52.608;13.416;2023-04-27T20:30:10;141564.38;;;-9.94;86.79
26915;BME280;14480;52.608;13.416;2023-04-27T20:35:15;141540.94;;;-10.04;86.78
26915;BME280;14480;52.608;13.416;2023-04-27T20:40:19;141527.38;;;-10.10;86.20
26915;BME280;14480;52.608;13.416;2023-04-27T20:45:25;141515.06;;;-10.15;87.77
26915;BME280;14480;52.608;13.416;2023-04-27T20:50:31;141486.75;;;-10.26;88.83
26915;BME280;14480;52.608;13.416;2023-04-27T20:55:34;141460.84;;;-10.37;91.87
26915;BME280;14480;52.608;13.416;2023-04-27T21:00:38;141444.81;;;-10.44;92.19
26915;BME280;14480;52.608;13.416;2023-04-27T21:05:43;141451.00;;;-10.41;92.03
26915;BME280;14480;52.608;13.416;2023-04-27T21:10:48;141443.59;;;-10.44;92.31
26915;BME280;14480;52.608;13.416;2023-04-27T21:15:51;141433.75;;;-10.48;92.26
26915;BME280;14480;52.608;13.416;2023-04-27T21:20:58;141421.38;;;-10.53;92.30
26915;BME280;14480;52.608;13.416;2023-04-27T21:26:05;141409.09;;;-10.58;93.69
26915;BME280;14480;52.608;13.416;2023-04-27T21:31:09;141390.59;;;-10.66;95.94
26915;BME280;14480;52.608;13.416;2023-04-27T21:36:14;141352.41;;;-10.82;99.57
